Data for 04/25/2018

Time Sea-Level Adjusted Pressure Absolute Pressure Temperature Relative Humidity Dew Point   
(mb) (inHg) (mb) (inHg) (C) (F) (%) (C) (F)
00:05 1026 30.3 855 25.25 2.7 36.8 76 -1.1 30
00:10 1026 30.3 855 25.25 2.8 37 75 -1.2 29.9
00:15 1026 30.3 855 25.25 2.7 36.8 76 -1.1 30
00:20 1026 30.3 855 25.25 2.5 36.5 77 -1.2 29.9
00:25 1026 30.3 855 25.25 2.5 36.5 77 -1.2 29.9
00:30 1026 30.3 855 25.25 2.5 36.5 76 -1.3 29.7
00:35 1026 30.3 855 25.25 2.6 36.6 76 -1.3 29.7
00:40 1026 30.3 855 25.25 2.4 36.3 76 -1.3 29.6
00:45 1026 30.3 855 25.25 2.3 36.1 76 -1.6 29.1
00:50 1026 30.3 855 25.25 2.4 36.4 74 -1.7 28.9
00:55 1026 30.3 855 25.25 2.5 36.6 73 -1.8 28.8
01:00 1026 30.3 855 25.25 2.6 36.7 73 -1.7 28.9
01:05 1026 30.3 855 25.25 2.6 36.7 73 -1.7 28.9
01:10 1026 30.3 855 25.25 2.6 36.7 72 -1.8 28.7
01:15 1026 30.3 855 25.25 2.8 37 71 -2 28.3
01:20 1026 30.3 855 25.25 2.8 37.1 70 -2 28.4
01:25 1026 30.3 855 25.25 2.6 36.7 71 -2 28.4
01:30 1026 30.3 855 25.25 2.4 36.4 71 -2.2 28
01:35 1026 30.3 855 25.25 2.5 36.4 71 -2.3 27.9
01:40 1026 30.3 855 25.25 2.4 36.3 71 -2.3 27.9
01:45 1026 30.3 855 25.25 2.3 36.2 72 -2.3 27.9
01:50 1026 30.3 855 25.25 2.2 36 72 -2.2 28
01:55 1026 30.3 855 25.25 1.9 35.4 75 -2.1 28.2
02:00 1026 30.3 855 25.25 1.5 34.8 75 -2.4 27.7
02:05 1026 30.3 855 25.25 1.8 35.2 73 -2.5 27.6
02:10 1026 30.3 855 25.25 2.1 35.7 73 -2.3 27.8
02:15 1026 30.3 855 25.25 1.8 35.2 73 -2.5 27.5
02:20 1026 30.3 855 25.25 2.1 35.8 72 -2.5 27.6
02:25 1025 30.27 855 25.25 2 35.7 72 -2.5 27.6
02:30 1025 30.27 855 25.25 2 35.7 72 -2.5 27.6
02:35 1025 30.27 855 25.25 1.8 35.3 74 -2.4 27.6
02:40 1025 30.27 854 25.22 1.7 35 73 -2.6 27.3
02:45 1025 30.27 854 25.22 1.7 35.1 72 -2.8 27
02:50 1025 30.27 854 25.22 1.7 35.1 70 -3.1 26.4
02:55 1025 30.27 854 25.22 1.9 35.4 69 -3.2 26.3
03:00 1025 30.27 854 25.22 2 35.6 67 -3.5 25.7
03:05 1025 30.27 854 25.22 2.3 36.1 66 -3.5 25.7
03:10 1025 30.27 854 25.22 2.2 35.9 67 -3.3 26
03:15 1025 30.27 854 25.22 1.9 35.4 67 -3.7 25.4
03:20 1025 30.27 854 25.22 2 35.5 65 -3.9 25.1
03:25 1025 30.27 854 25.22 2.1 35.8 64 -3.9 24.9
03:30 1025 30.27 854 25.22 2.2 35.9 65 -3.6 25.4
03:35 1025 30.27 854 25.22 2 35.6 65 -3.8 25.2
03:40 1025 30.27 854 25.22 1.8 35.2 68 -3.6 25.6
03:45 1025 30.27 854 25.22 1.7 35.1 67 -3.8 25.1
03:50 1025 30.27 854 25.22 2 35.6 65 -4 24.8
03:55 1025 30.27 854 25.22 2.2 36 63 -4.1 24.6
04:00 1025 30.27 854 25.22 2.4 36.2 62 -4.2 24.5
04:05 1025 30.27 854 25.22 2.5 36.4 62 -4.2 24.5
04:10 1025 30.27 854 25.22 2.2 35.9 63 -4.1 24.7
04:15 1025 30.27 854 25.22 1.9 35.4 64 -4.2 24.4
04:20 1025 30.27 854 25.22 1.8 35.3 63 -4.4 24.1
04:25 1025 30.27 854 25.22 2 35.5 63 -4.3 24.3
04:30 1025 30.27 854 25.22 2 35.5 63 -4.4 24.1
04:35 1025 30.27 854 25.22 1.9 35.4 63 -4.3 24.2
04:40 1025 30.27 854 25.22 2 35.6 62 -4.6 23.7
04:45 1025 30.27 854 25.22 2 35.7 63 -4.4 24.1
04:50 1025 30.27 854 25.22 2 35.6 62 -4.5 23.8
04:55 1025 30.27 854 25.22 1.8 35.2 63 -4.5 23.8
05:00 1025 30.27 854 25.22 1.3 34.4 65 -4.5 23.9
05:05 1024 30.24 854 25.22 1.1 34 66 -4.6 23.7
05:10 1024 30.24 854 25.22 0.8 33.5 69 -4.3 24.3
05:15 1024 30.24 854 25.22 0.4 32.7 69 -4.6 23.8
05:20 1024 30.24 853 25.19 0.3 32.6 71 -4.4 24.2
05:25 1024 30.24 853 25.19 0.2 32.4 70 -4.7 23.6
05:30 1024 30.24 853 25.19 0.3 32.5 69 -4.8 23.4
05:35 1024 30.24 853 25.19 0.4 32.7 66 -5.1 22.7
05:40 1024 30.24 853 25.19 0.6 33.1 66 -5.1 22.8
05:45 1024 30.24 853 25.19 0.6 33.1 65 -5.1 22.8
05:50 1024 30.24 853 25.19 0.5 33 67 -4.9 23.2
05:55 1024 30.24 853 25.19 0.2 32.4 70 -4.7 23.5
06:00 1024 30.24 853 25.19 0.2 32.3 68 -5.1 22.8
06:05 1024 30.24 853 25.19 0.6 33 65 -5.2 22.6
06:10 1024 30.24 853 25.19 0.8 33.4 64 -5.3 22.4
06:15 1024 30.24 853 25.19 0.7 33.3 65 -5.2 22.6
06:20 1024 30.24 853 25.19 0.5 32.9 66 -5.1 22.8
06:25 1024 30.24 853 25.19 0.4 32.7 65 -5.5 22.2
06:30 1024 30.24 853 25.19 0.7 33.3 62 -5.7 21.8
06:35 1024 30.24 853 25.19 1 33.9 58 -6.2 20.8
06:40 1024 30.24 853 25.19 1.3 34.4 59 -5.9 21.3
06:45 1024 30.24 853 25.19 1.3 34.4 59 -5.8 21.6
06:50 1024 30.24 853 25.19 1.3 34.3 58 -6 21.2
06:55 1024 30.24 853 25.19 1.4 34.4 56 -6.4 20.5
07:00 1024 30.24 853 25.19 1.6 34.9 56 -6.3 20.7
07:05 1024 30.24 853 25.19 1.5 34.7 57 -6.2 20.9
07:10 1024 30.24 853 25.19 1.4 34.6 57 -6.3 20.7
07:15 1024 30.24 853 25.19 1.5 34.7 56 -6.2 20.8
07:20 1024 30.24 853 25.19 1.6 34.9 56 -6.3 20.6
07:25 1023 30.21 853 25.19 1.7 35.1 55 -6.4 20.5
07:30 1023 30.21 853 25.19 1.8 35.2 56 -6.2 20.9
07:35 1023 30.21 853 25.19 1.8 35.3 56 -6.1 21
07:40 1023 30.21 852 25.16 1.8 35.3 55 -6.2 20.8
07:45 1023 30.21 852 25.16 1.8 35.3 56 -6 21.3
07:50 1023 30.21 852 25.16 1.9 35.4 56 -6 21.2
07:55 1023 30.21 852 25.16 2.2 36 55 -5.9 21.5
08:00 1023 30.21 852 25.16 2.4 36.3 55 -5.7 21.8
08:05 1023 30.21 852 25.16 2.6 36.7 55 -5.6 21.9
08:10 1023 30.21 852 25.16 2.9 37.2 54 -5.5 22.1
08:15 1023 30.21 852 25.16 3.3 37.9 53 -5.4 22.3
08:20 1023 30.21 852 25.16 3.6 38.6 51 -5.4 22.2
08:25 1023 30.21 852 25.16 4.3 39.8 48 -5.8 21.6
08:30 1023 30.21 852 25.16 4.7 40.4 45 -6.2 20.8
08:35 1023 30.21 852 25.16 5.1 41.1 44 -6.3 20.7
08:40 1023 30.21 852 25.16 5.3 41.5 42 -6.5 20.3
08:45 1023 30.21 852 25.16 5.5 42 46 -5.3 22.5
08:50 1023 30.21 852 25.16 5.6 42.1 43 -6 21.2
08:55 1023 30.21 852 25.16 5.9 42.6 45 -5.1 22.8
09:00 1023 30.21 852 25.16 6.6 43.9 42 -5.5 22.2
09:05 1023 30.21 852 25.16 7.3 45.2 39 -5.8 21.6
09:10 1023 30.21 852 25.16 7.6 45.7 37 -6.2 20.9
09:15 1023 30.21 852 25.16 7.5 45.5 37 -6.2 20.8
09:20 1023 30.21 852 25.16 8 46.5 40 -4.8 23.4
09:25 1023 30.21 852 25.16 8.3 46.9 38 -5.3 22.5
09:30 1023 30.21 852 25.16 8.8 47.8 39 -4.4 24.1
09:35 1023 30.21 852 25.16 9.3 48.8 34 -5.6 21.9
09:40 1023 30.21 852 25.16 9.4 49 40 -3.4 26
09:45 1023 30.21 852 25.16 8.4 47.1 44 -3 26.6
09:50 1023 30.21 852 25.16 7.8 46.1 46 -3 26.6
09:55 1023 30.21 852 25.16 7.8 46.1 46 -3.2 26.3
10:00 1023 30.21 852 25.16 7.6 45.6 44 -3.9 25
10:05 1023 30.21 852 25.16 7.9 46.3 42 -4.2 24.4
10:10 1023 30.21 852 25.16 8.2 46.7 40 -4.6 23.8
10:15 1023 30.21 852 25.16 8.4 47.1 41 -4 24.8
10:20 1023 30.21 852 25.16 9.1 48.4 40 -3.9 24.9
10:25 1023 30.21 852 25.16 9.8 49.6 39 -3.6 25.5
10:30 1023 30.21 852 25.16 9.5 49.1 38 -4.1 24.7
10:35 1023 30.21 852 25.16 10.1 50.3 35 -4.5 23.9
10:40 1023 30.21 852 25.16 10.7 51.3 36 -3.8 25.2
10:45 1023 30.21 852 25.16 10.2 50.3 35 -4.5 23.8
10:50 1023 30.21 852 25.16 11 51.7 32 -5.1 22.9
10:55 1023 30.21 852 25.16 11.9 53.5 31 -4.6 23.8
11:00 1022 30.18 852 25.16 12 53.6 32 -4.2 24.5
11:05 1022 30.18 851 25.13 12.6 54.6 29 -4.9 23.2
11:10 1022 30.18 851 25.13 12.1 53.7 29 -5.3 22.4
11:15 1022 30.18 851 25.13 12.5 54.6 28 -5.4 22.3
11:20 1022 30.18 851 25.13 12.3 54.1 26 -6.6 20.2
11:25 1022 30.18 851 25.13 13 55.3 25 -6.7 19.9
11:30 1022 30.18 851 25.13 12.7 54.8 27 -5.7 21.7
11:35 1022 30.18 851 25.13 12.2 54 26 -6.7 20
11:40 1022 30.18 851 25.13 12.8 55 25 -6.5 20.2
11:45 1022 30.18 851 25.13 13 55.3 26 -6.1 21
11:50 1022 30.18 851 25.13 13.1 55.6 25 -6.3 20.6
11:55 1022 30.18 851 25.13 13.5 56.2 24 -6.5 20.4
12:00 1022 30.18 851 25.13 13.5 56.3 26 -5.8 21.6
12:05 1022 30.18 851 25.13 13.3 55.9 27 -5.4 22.3
12:10 1022 30.18 851 25.13 13.3 56 27 -5.4 22.2
12:15 1022 30.18 851 25.13 13.7 56.7 26 -5.6 21.9
12:20 1022 30.18 851 25.13 14.1 57.3 25 -5.6 21.9
12:25 1022 30.18 851 25.13 14.1 57.3 25 -5.7 21.7
12:30 1022 30.18 851 25.13 14.3 57.8 24 -6 21.2
12:35 1022 30.18 851 25.13 14.7 58.5 23 -6.2 20.9
12:40 1022 30.18 851 25.13 14.4 58 24 -5.6 21.9
12:45 1022 30.18 851 25.13 14.8 58.7 24 -5.5 22.1
12:50 1022 30.18 851 25.13 14.7 58.5 25 -5.2 22.6
12:55 1021 30.15 851 25.13 14.9 58.8 24 -5.7 21.7
13:00 1021 30.15 851 25.13 14.8 58.7 25 -5.1 22.8
13:05 1021 30.15 851 25.13 15.1 59.1 25 -4.5 23.9
13:10 1021 30.15 851 25.13 15.2 59.4 26 -4.1 24.7
13:15 1021 30.15 850 25.1 15.5 59.8 23 -5.4 22.3
13:20 1021 30.15 850 25.1 16.1 61.1 22 -5.2 22.6
13:25 1021 30.15 850 25.1 16.1 61 24 -4.6 23.8
13:30 1021 30.15 850 25.1 16.3 61.4 22 -5.5 22.1
13:35 1021 30.15 850 25.1 16.2 61.2 23 -4.9 23.2
13:40 1021 30.15 850 25.1 16.6 62 23 -4.4 24
13:45 1021 30.15 850 25.1 16.6 61.8 23 -4.3 24.3
13:50 1021 30.15 850 25.1 16.1 61 23 -5.1 22.7
13:55 1021 30.15 850 25.1 15.9 60.7 23 -5.2 22.6
14:00 1021 30.15 850 25.1 16.2 61.1 24 -4.5 23.8
14:05 1021 30.15 850 25.1 16.5 61.7 23 -4.8 23.4
14:10 1020 30.12 850 25.1 16.5 61.6 22 -5.3 22.4
14:15 1020 30.12 850 25.1 16.3 61.4 19 -7.2 19.1
14:20 1020 30.12 850 25.1 16.6 61.8 21 -5.6 22
14:25 1020 30.12 850 25.1 16.6 61.8 22 -5.2 22.6
14:30 1020 30.12 849 25.07 16.8 62.2 22 -4.9 23.1
14:35 1020 30.12 850 25.1 16.6 61.9 22 -5.2 22.7
14:40 1020 30.12 850 25.1 16.8 62.3 22 -5 23.1
14:45 1020 30.12 850 25.1 17.2 63 23 -3.9 24.9
14:50 1020 30.12 849 25.07 16.4 61.6 22 -5 23
14:55 1020 30.12 849 25.07 16.1 60.9 22 -5.5 22.1
15:00 1020 30.12 849 25.07 16.3 61.3 21 -6.3 20.7
15:05 1020 30.12 849 25.07 16.2 61.2 20 -7 19.4
15:10 1020 30.12 849 25.07 16.3 61.3 18 -7.9 17.7
15:15 1020 30.12 849 25.07 16.5 61.6 16 -9.6 14.8
15:20 1020 30.12 849 25.07 16.9 62.3 16 -8.8 16.1
15:25 1020 30.12 849 25.07 17 62.6 16 -9.1 15.5
15:30 1020 30.12 849 25.07 17.2 63 15 -9.8 14.4
15:35 1020 30.12 849 25.07 17.5 63.6 14 -10 13.9
15:40 1020 30.12 849 25.07 17.4 63.4 15 -9.4 15.1
15:45 1020 30.12 849 25.07 17.7 63.8 14 -10.2 13.6
15:50 1020 30.12 849 25.07 17.7 63.9 14 -10.1 13.8
15:55 1020 30.12 849 25.07 18 64.4 14 -9.6 14.7
16:00 1020 30.12 849 25.07 18.3 65 14 -9.5 14.9
16:05 1020 30.12 849 25.07 18.5 65.4 14 -9.8 14.3
16:10 1020 30.12 849 25.07 18.2 64.8 14 -9.7 14.5
16:15 1020 30.12 849 25.07 17.5 63.5 15 -9.5 14.8
16:20 1020 30.12 849 25.07 17.1 62.7 15 -9.8 14.3
16:25 1020 30.12 849 25.07 17 62.6 15 -9.6 14.7
16:30 1020 30.12 849 25.07 17 62.5 15 -9.7 14.6
16:35 1019 30.09 849 25.07 16.8 62.2 15 -9.8 14.3
16:40 1019 30.09 849 25.07 17 62.5 17 -8.5 16.7
16:45 1020 30.12 849 25.07 16.9 62.3 18 -7.5 18.5
16:50 1020 30.12 849 25.07 17.1 62.7 15 -9.4 15
16:55 1020 30.12 849 25.07 16.9 62.4 15 -9.5 15
17:00 1020 30.12 849 25.07 16.7 62.1 19 -7.2 19.1
17:05 1020 30.12 849 25.07 16.5 61.7 20 -6.5 20.3
17:10 1020 30.12 849 25.07 16.3 61.3 21 -6.3 20.6
17:15 1020 30.12 849 25.07 16.3 61.4 20 -6.3 20.7
17:20 1020 30.12 849 25.07 16.4 61.4 20 -6.6 20.1
17:25 1020 30.12 849 25.07 16.4 61.4 18 -7.9 17.8
17:30 1020 30.12 849 25.07 16.3 61.3 21 -6 21.1
17:35 1020 30.12 849 25.07 16.2 61.1 20 -6.5 20.2
17:40 1020 30.12 849 25.07 15.6 60 20 -7.3 18.9
17:45 1020 30.12 849 25.07 15.9 60.5 20 -7.2 19
17:50 1020 30.12 849 25.07 16.3 61.4 20 -6.7 19.9
17:55 1020 30.12 849 25.07 16.1 61 19 -7.3 18.9
18:00 1020 30.12 849 25.07 15.6 60 21 -6.7 20
18:05 1020 30.12 849 25.07 15.5 59.8 22 -6.4 20.5
18:10 1020 30.12 849 25.07 15.4 59.7 23 -5.5 22.1
18:15 1021 30.15 850 25.1 15 59 23 -5.6 21.9
18:20 1021 30.15 850 25.1 14.4 58 27 -4.5 23.9
18:25 1021 30.15 850 25.1 13.9 57 30 -3.4 25.8
18:30 1021 30.15 850 25.1 13.7 56.7 31 -3.2 26.3
18:35 1021 30.15 850 25.1 13.6 56.5 29 -4 24.8
18:40 1021 30.15 850 25.1 13.5 56.4 29 -4 24.8
18:45 1021 30.15 850 25.1 13.3 55.9 30 -3.8 25.1
18:50 1021 30.15 851 25.13 13.3 56 29 -4.3 24.3
18:55 1021 30.15 851 25.13 13.3 56 29 -4.3 24.3
19:00 1021 30.15 851 25.13 13.5 56.3 29 -4.2 24.4
19:05 1022 30.18 851 25.13 13.3 55.9 29 -4.2 24.4
19:10 1022 30.18 851 25.13 13.4 56.1 29 -4.1 24.6
19:15 1022 30.18 851 25.13 13.2 55.8 30 -3.9 25
19:20 1022 30.18 851 25.13 13.2 55.7 31 -3.7 25.4
19:25 1022 30.18 851 25.13 12.8 55.1 34 -2.4 27.6
19:30 1022 30.18 851 25.13 12.1 53.8 37 -2.2 28
19:35 1022 30.18 851 25.13 11.4 52.6 40 -1.7 28.9
19:40 1022 30.18 851 25.13 11 51.8 41 -1.8 28.7
19:45 1022 30.18 851 25.13 10.8 51.4 41 -1.9 28.6
19:50 1022 30.18 851 25.13 10.6 51 42 -1.9 28.6
19:55 1022 30.18 851 25.13 10.5 51 42 -1.8 28.7
20:00 1022 30.18 851 25.13 10.4 50.8 42 -1.9 28.5
20:05 1022 30.18 851 25.13 10.3 50.5 43 -1.8 28.7
20:10 1022 30.18 852 25.16 10.2 50.4 42 -1.9 28.5
20:15 1022 30.18 852 25.16 10.1 50.2 43 -1.8 28.8
20:20 1023 30.21 852 25.16 10 50 43 -1.9 28.6
20:25 1023 30.21 852 25.16 9.9 49.9 43 -2 28.4
20:30 1023 30.21 852 25.16 9.8 49.6 43 -2.1 28.2
20:35 1023 30.21 852 25.16 9.7 49.5 43 -2.1 28.2
20:40 1023 30.21 852 25.16 9.7 49.4 43 -2.3 27.9
20:45 1023 30.21 852 25.16 9.6 49.2 44 -2.1 28.1
20:50 1023 30.21 852 25.16 9.5 49.2 44 -2.1 28.2
20:55 1023 30.21 852 25.16 9.4 49 44 -2.3 27.9
21:00 1023 30.21 853 25.19 9.4 48.8 44 -2.1 28.2
21:05 1023 30.21 853 25.19 9.2 48.6 45 -2 28.4
21:10 1023 30.21 853 25.19 9.1 48.4 45 -2.1 28.3
21:15 1024 30.24 853 25.19 9.1 48.3 45 -2.2 28.1
21:20 1024 30.24 853 25.19 9.1 48.3 45 -2.2 28
21:25 1024 30.24 853 25.19 9 48.2 45 -2.4 27.7
21:30 1024 30.24 853 25.19 9 48.3 44 -2.4 27.7
21:35 1024 30.24 853 25.19 8.9 48.1 45 -2.3 27.8
21:40 1024 30.24 853 25.19 8.7 47.7 46 -2.2 28.1
21:45 1024 30.24 853 25.19 8.5 47.4 46 -2.3 27.9
21:50 1024 30.24 853 25.19 8.5 47.2 46 -2.3 27.8
21:55 1024 30.24 853 25.19 8.3 47 47 -2.2 28.1
22:00 1024 30.24 854 25.22 8.1 46.7 48 -2.3 27.9
22:05 1024 30.24 854 25.22 8.1 46.6 47 -2.5 27.6
22:10 1024 30.24 854 25.22 8.1 46.5 47 -2.6 27.4
22:15 1024 30.24 854 25.22 8.1 46.6 47 -2.6 27.2
22:20 1025 30.27 854 25.22 8.1 46.6 46 -2.7 27.1
22:25 1025 30.27 854 25.22 8.1 46.6 46 -2.7 27.2
22:30 1025 30.27 854 25.22 8.2 46.7 45 -2.9 26.8
22:35 1025 30.27 854 25.22 8.2 46.8 46 -2.6 27.4
22:40 1025 30.27 854 25.22 8 46.3 47 -2.6 27.3
22:45 1025 30.27 854 25.22 7.8 46 47 -2.9 26.8
22:50 1025 30.27 854 25.22 7.9 46.1 46 -3.1 26.4
22:55 1025 30.27 854 25.22 7.9 46.3 46 -3 26.6
23:00 1025 30.27 854 25.22 7.9 46.1 46 -3.1 26.4
23:05 1025 30.27 854 25.22 7.8 46.1 46 -3 26.6
23:10 1025 30.27 854 25.22 7.7 45.8 47 -3 26.6
23:15 1025 30.27 854 25.22 7.5 45.5 48 -2.9 26.8
23:20 1025 30.27 854 25.22 7.3 45.2 48 -2.9 26.8
23:25 1025 30.27 854 25.22 7.2 45 49 -2.8 27
23:30 1025 30.27 854 25.22 7 44.6 50 -2.7 27.1
23:35 1025 30.27 854 25.22 6.9 44.4 50 -2.9 26.8
23:40 1025 30.27 854 25.22 6.8 44.3 51 -2.6 27.2
23:45 1025 30.27 855 25.25 6.6 43.9 51 -2.7 27.2
23:50 1025 30.27 855 25.25 6.4 43.5 52 -2.7 27.1
23:55 1025 30.27 855 25.25 6.2 43.2 53 -2.7 27.1
24:00 1025 30.27 855 25.25 6.1 43 53 -2.8 27